createdAt,value
2023-01-19T00:00:22.182Z,-1.35
2023-01-19T00:03:23.657Z,-1.38
2023-01-19T00:06:26.189Z,-1.42
2023-01-19T00:09:32.613Z,-1.45
2023-01-19T00:12:34.033Z,-1.43
2023-01-19T00:15:38.735Z,-1.39
2023-01-19T00:18:41.304Z,-1.41
2023-01-19T00:21:43.838Z,-1.43
2023-01-19T00:24:45.291Z,-1.49
2023-01-19T00:27:49.840Z,-1.52
2023-01-19T00:30:51.850Z,-1.57
2023-01-19T00:33:54.416Z,-1.58
2023-01-19T00:36:57.002Z,-1.64
2023-01-19T00:39:59.137Z,-1.65
2023-01-19T00:43:02.155Z,-1.68
2023-01-19T00:46:04.411Z,-1.70
2023-01-19T00:49:07.129Z,-1.68
2023-01-19T00:52:08.599Z,-1.66
2023-01-19T00:55:12.461Z,-1.68
2023-01-19T00:58:15.143Z,-1.77
2023-01-19T01:01:17.455Z,-1.74
2023-01-19T01:04:20.087Z,-1.80
2023-01-19T01:07:22.110Z,-1.83
2023-01-19T01:10:26.833Z,-1.95
2023-01-19T01:13:29.852Z,-1.86
2023-01-19T01:16:32.156Z,-1.74
2023-01-19T01:19:34.906Z,-1.85
2023-01-19T01:22:38.339Z,-1.83
2023-01-19T01:25:41.305Z,-1.85
2023-01-19T01:28:44.044Z,-1.83
2023-01-19T01:31:46.207Z,-1.80
2023-01-19T01:34:48.800Z,-1.87
2023-01-19T01:37:50.161Z,-1.83
2023-01-19T01:40:52.745Z,-1.88
2023-01-19T01:43:57.677Z,-1.89
2023-01-19T01:47:12.124Z,-1.87
2023-01-19T01:50:16.615Z,-1.91
2023-01-19T01:56:44.159Z,-1.87
2023-01-19T01:59:49.308Z,-1.90
2023-01-19T02:02:52.537Z,-1.92
2023-01-19T02:05:56.685Z,-1.91
2023-01-19T02:09:22.862Z,-1.91
2023-01-19T02:12:42.792Z,-1.89
2023-01-19T02:15:44.116Z,-1.92
2023-01-19T02:18:47.411Z,-1.91
2023-01-19T02:21:55.628Z,-1.91
2023-01-19T02:24:58.102Z,-2.02
2023-01-19T02:28:01.474Z,-2.00
2023-01-19T02:31:02.952Z,-1.92
2023-01-19T02:34:07.065Z,-1.86
2023-01-19T02:37:11.711Z,-1.85
2023-01-19T02:40:20.237Z,-1.83
2023-01-19T02:43:24.924Z,-1.87
2023-01-19T02:46:26.307Z,-1.80
2023-01-19T02:49:29.373Z,-1.85
2023-01-19T02:52:32.036Z,-1.85
2023-01-19T02:55:34.086Z,-1.83
2023-01-19T02:58:43.924Z,-1.83
2023-01-19T03:02:04.269Z,-1.89
2023-01-19T03:05:26.830Z,-1.88
2023-01-19T03:08:40.944Z,-1.92
2023-01-19T03:11:51.453Z,-1.96
2023-01-19T03:14:58.846Z,-1.97
2023-01-19T03:18:01.780Z,-2.00
2023-01-19T03:21:08.018Z,-2.01
2023-01-19T03:24:11.960Z,-2.00
2023-01-19T03:27:18.878Z,-2.04
2023-01-19T03:33:50.831Z,-2.08
2023-01-19T03:36:54.525Z,-2.09
2023-01-19T03:39:57.308Z,-2.08
2023-01-19T03:43:02.259Z,-2.14
2023-01-19T03:46:05.044Z,-2.18
2023-01-19T03:49:08.920Z,-2.15
2023-01-19T03:52:11.725Z,-2.15
2023-01-19T03:55:14.438Z,-2.15
2023-01-19T03:58:17.771Z,-2.18
2023-01-19T04:01:21.915Z,-2.20
2023-01-19T04:04:25.949Z,-2.23
2023-01-19T04:07:27.760Z,-2.26
2023-01-19T04:10:29.029Z,-2.28
2023-01-19T04:13:31.014Z,-2.25
2023-01-19T04:16:33.588Z,-2.09
2023-01-19T04:19:34.840Z,-2.05
2023-01-19T04:22:38.064Z,-2.05
2023-01-19T04:25:39.631Z,-2.11
2023-01-19T04:32:04.187Z,-1.77
2023-01-19T04:35:06.308Z,-1.70
2023-01-19T04:38:08.838Z,-1.86
2023-01-19T04:41:10.146Z,-1.75
2023-01-19T04:44:13.352Z,-1.67
2023-01-19T04:47:15.950Z,-1.44
2023-01-19T04:50:17.445Z,-1.63
2023-01-19T04:53:20.006Z,-1.63
2023-01-19T04:56:21.358Z,-1.61
2023-01-19T04:59:24.663Z,-1.67
2023-01-19T05:02:27.804Z,-1.67
2023-01-19T05:05:29.396Z,-1.71
2023-01-19T05:08:31.944Z,-1.79
2023-01-19T05:11:33.328Z,-1.77
2023-01-19T05:14:35.382Z,-1.76
2023-01-19T05:17:36.657Z,-1.78
2023-01-19T05:20:38.805Z,-1.72
2023-01-19T05:23:41.659Z,-1.61
2023-01-19T05:26:44.309Z,-1.70
2023-01-19T05:29:46.276Z,-1.71
2023-01-19T05:32:47.626Z,-1.68
2023-01-19T05:35:50.492Z,-1.87
2023-01-19T05:38:51.783Z,-1.90
2023-01-19T05:41:54.589Z,-1.86
2023-01-19T05:44:57.767Z,-2.01
2023-01-19T05:47:59.077Z,-2.01
2023-01-19T05:51:01.188Z,-2.00
2023-01-19T05:54:03.805Z,-1.99
2023-01-19T05:57:05.161Z,-2.12
2023-01-19T06:00:08.932Z,-2.14
2023-01-19T06:03:11.703Z,-2.15
2023-01-19T06:06:14.256Z,-2.13
2023-01-19T06:09:16.544Z,-1.94
2023-01-19T06:12:18.818Z,-1.98
2023-01-19T06:15:22.064Z,-1.84
2023-01-19T06:18:23.404Z,-1.69
2023-01-19T06:21:24.788Z,-1.73
2023-01-19T06:24:29.814Z,-1.76
2023-01-19T06:27:32.642Z,-1.60
2023-01-19T06:30:34.663Z,-1.60
2023-01-19T06:36:57.531Z,-1.60
2023-01-19T06:43:21.219Z,-1.80
2023-01-19T06:46:23.207Z,-1.81
2023-01-19T06:49:25.872Z,-1.58
2023-01-19T06:52:27.765Z,-1.62
2023-01-19T06:55:30.347Z,-1.76
2023-01-19T06:58:33.055Z,-1.86
2023-01-19T07:01:36.633Z,-1.88
2023-01-19T07:04:37.962Z,-1.89
2023-01-19T07:07:41.036Z,-1.92
2023-01-19T07:11:26.263Z,-1.86
2023-01-19T07:14:05.216Z,-1.87
2023-01-19T07:17:09.180Z,-1.87
2023-01-19T07:20:13.562Z,-1.87
2023-01-19T07:23:16.386Z,-1.83
2023-01-19T07:26:20.442Z,-1.76
2023-01-19T07:29:42.444Z,-1.58
2023-01-19T07:32:45.706Z,-1.63
2023-01-19T07:35:47.491Z,-1.66
2023-01-19T07:42:09.765Z,-1.62
2023-01-19T07:45:11.591Z,-1.57
2023-01-19T07:51:34.547Z,-1.46
2023-01-19T07:54:35.840Z,-1.59
2023-01-19T07:57:37.406Z,-1.41
2023-01-19T08:00:38.894Z,-1.35
2023-01-19T08:03:42.920Z,-1.39
2023-01-19T08:06:47.190Z,-1.29
2023-01-19T08:09:48.742Z,-1.13
2023-01-19T08:12:51.378Z,-1.20
2023-01-19T08:15:53.792Z,-1.04
2023-01-19T08:18:57.001Z,-0.94
2023-01-19T08:21:59.359Z,-1.06
2023-01-19T08:25:01.903Z,-0.83
2023-01-19T08:31:27.887Z,-0.77
2023-01-19T08:34:30.792Z,-0.44
2023-01-19T08:37:34.261Z,-0.28
2023-01-19T08:40:38.301Z,-0.29
2023-01-19T08:43:40.874Z,-0.04
2023-01-19T08:46:42.416Z,-0.05
2023-01-19T08:49:44.726Z,0.11
2023-01-19T08:52:46.002Z,0.01
2023-01-19T08:55:48.580Z,0.07
2023-01-19T08:59:03.483Z,-0.07
2023-01-19T09:02:10.166Z,-0.17
2023-01-19T09:05:14.275Z,-0.13
2023-01-19T09:08:16.278Z,-0.02
2023-01-19T09:11:17.949Z,0.24
2023-01-19T09:14:20.534Z,0.18
2023-01-19T09:17:22.110Z,0.28
2023-01-19T09:20:25.438Z,0.48
2023-01-19T09:23:27.198Z,0.65
2023-01-19T09:26:31.645Z,0.81
2023-01-19T09:29:35.437Z,1.18
2023-01-19T09:32:38.089Z,1.01
2023-01-19T09:35:42.276Z,1.16
2023-01-19T09:38:43.618Z,1.28
2023-01-19T09:41:50.777Z,1.48
2023-01-19T09:44:54.263Z,1.54
2023-01-19T09:47:58.263Z,1.52
2023-01-19T09:51:05.212Z,1.87
2023-01-19T09:54:12.842Z,1.89
2023-01-19T09:57:15.804Z,2.06
2023-01-19T10:00:18.183Z,2.27
2023-01-19T10:03:20.287Z,2.53
2023-01-19T10:06:22.829Z,2.67
2023-01-19T10:09:31.233Z,3.18
2023-01-19T10:12:43.830Z,3.27
2023-01-19T10:15:53.447Z,3.32
2023-01-19T10:19:01.502Z,3.38
2023-01-19T10:22:18.256Z,3.66
2023-01-19T10:25:24.245Z,3.88
2023-01-19T10:28:26.899Z,4.17
2023-01-19T10:31:29.581Z,4.45
2023-01-19T10:34:32.198Z,4.73
2023-01-19T10:37:38.753Z,5.11
2023-01-19T10:40:49.449Z,5.11
2023-01-19T10:44:01.264Z,5.41
2023-01-19T10:47:05.849Z,5.40
2023-01-19T10:50:24.729Z,5.66
2023-01-19T10:53:28.611Z,5.56
2023-01-19T10:56:34.140Z,5.62
2023-01-19T10:59:39.680Z,5.63
2023-01-19T11:02:52.265Z,5.60
2023-01-19T11:05:54.555Z,5.55
2023-01-19T11:09:17.336Z,5.59
2023-01-19T11:12:21.834Z,5.40
2023-01-19T11:15:26.613Z,5.50
2023-01-19T11:18:31.429Z,6.17
2023-01-19T11:21:33.178Z,6.43
2023-01-19T11:24:41.795Z,6.71
2023-01-19T11:27:50.033Z,6.72
2023-01-19T11:30:56.044Z,6.89
2023-01-19T11:34:00.279Z,6.73
2023-01-19T11:37:04.290Z,6.64
2023-01-19T11:40:14.342Z,6.76
2023-01-19T11:43:18.523Z,6.61
2023-01-19T11:46:22.661Z,6.68
2023-01-19T11:49:33.964Z,6.44
2023-01-19T11:52:43.192Z,6.63
2023-01-19T11:55:53.549Z,6.72
2023-01-19T11:58:55.629Z,6.93
2023-01-19T12:02:01.853Z,6.52
2023-01-19T12:05:09.250Z,6.43
2023-01-19T12:08:16.870Z,6.00
2023-01-19T12:11:24.592Z,5.96
2023-01-19T12:14:32.732Z,6.02
2023-01-19T12:17:37.701Z,5.81
2023-01-19T12:20:44.905Z,5.66
2023-01-19T12:24:00.547Z,5.25
2023-01-19T12:27:14.806Z,5.41
2023-01-19T12:30:20.757Z,5.28
2023-01-19T12:33:36.349Z,5.03
2023-01-19T12:36:38.480Z,4.90
2023-01-19T12:39:49.053Z,4.78
2023-01-19T12:42:58.230Z,4.71
2023-01-19T12:46:00.100Z,4.81
2023-01-19T12:49:04.719Z,4.76
2023-01-19T12:52:25.120Z,4.63
2023-01-19T12:55:31.515Z,4.62
2023-01-19T12:58:33.807Z,4.51
2023-01-19T13:01:35.254Z,4.38
2023-01-19T13:04:36.648Z,4.63
2023-01-19T13:08:13.040Z,4.46
2023-01-19T13:11:20.460Z,4.15
2023-01-19T13:14:35.615Z,4.07
2023-01-19T13:17:50.442Z,4.15
2023-01-19T13:20:56.650Z,4.09
2023-01-19T13:24:01.334Z,4.17
2023-01-19T13:27:04.235Z,4.23
2023-01-19T13:30:13.093Z,4.24
2023-01-19T13:33:20.682Z,4.20
2023-01-19T13:36:26.706Z,4.04
2023-01-19T13:39:31.161Z,3.87
2023-01-19T13:42:35.713Z,4.10
2023-01-19T13:45:39.288Z,3.99
2023-01-19T13:48:54.955Z,3.98
2023-01-19T13:52:07.100Z,3.86
2023-01-19T13:55:15.243Z,4.00
2023-01-19T13:58:23.252Z,4.05
2023-01-19T14:01:28.995Z,4.03
2023-01-19T14:04:33.735Z,4.11
2023-01-19T14:07:35.345Z,4.06
2023-01-19T14:10:39.964Z,4.00
2023-01-19T14:13:44.072Z,3.98
2023-01-19T14:16:46.090Z,3.86
2023-01-19T14:19:50.490Z,3.94
2023-01-19T14:22:53.290Z,3.83
2023-01-19T14:25:55.938Z,3.85
2023-01-19T14:28:57.724Z,3.87
2023-01-19T14:32:14.548Z,3.93
2023-01-19T14:35:24.569Z,3.99
2023-01-19T14:38:30.222Z,3.88
2023-01-19T14:41:40.041Z,3.98
2023-01-19T14:44:47.642Z,3.71
2023-01-19T14:47:57.539Z,3.77
2023-01-19T14:51:04.324Z,3.70
2023-01-19T14:54:12.915Z,3.62
2023-01-19T14:57:14.846Z,3.42
2023-01-19T15:00:19.659Z,3.38
2023-01-19T15:03:26.843Z,3.42
2023-01-19T15:06:38.308Z,3.49
2023-01-19T15:09:42.370Z,3.55
2023-01-19T15:12:45.994Z,3.42
2023-01-19T15:15:51.358Z,3.38
2023-01-19T15:18:53.529Z,3.34
2023-01-19T15:21:54.922Z,3.21
2023-01-19T15:25:00.440Z,3.07
2023-01-19T15:28:04.958Z,3.25
2023-01-19T15:31:06.402Z,3.25
2023-01-19T15:34:12.043Z,3.14
2023-01-19T15:37:14.958Z,3.05
2023-01-19T15:40:18.200Z,3.06
2023-01-19T15:43:21.929Z,3.06
2023-01-19T15:46:26.611Z,2.96
2023-01-19T15:49:30.160Z,2.97
2023-01-19T15:52:33.136Z,2.88
2023-01-19T15:55:35.294Z,2.74
2023-01-19T15:58:38.195Z,2.71
2023-01-19T16:01:40.165Z,2.65
2023-01-19T16:04:43.819Z,2.61
2023-01-19T16:07:47.065Z,2.52
2023-01-19T16:10:51.240Z,2.59
2023-01-19T16:13:52.874Z,2.46
2023-01-19T16:16:54.674Z,2.36
2023-01-19T16:20:00.293Z,2.39
2023-01-19T16:23:14.163Z,2.56
2023-01-19T16:29:47.787Z,2.41
2023-01-19T16:32:50.696Z,2.32
2023-01-19T16:39:17.962Z,2.38
2023-01-19T16:42:19.773Z,2.42
2023-01-19T16:45:22.781Z,2.41
2023-01-19T16:48:24.929Z,2.41
2023-01-19T16:51:28.898Z,2.48
2023-01-19T16:54:31.535Z,2.57
2023-01-19T16:57:34.180Z,2.59
2023-01-19T17:00:36.439Z,2.48
2023-01-19T17:03:39.266Z,2.48
2023-01-19T17:06:41.575Z,2.48
2023-01-19T17:09:42.996Z,2.48
2023-01-19T17:12:45.554Z,2.42
2023-01-19T17:15:47.225Z,2.50
2023-01-19T17:18:50.423Z,2.45
2023-01-19T17:21:55.511Z,2.46
2023-01-19T17:24:56.924Z,2.52
2023-01-19T17:28:01.585Z,2.41
2023-01-19T17:31:07.793Z,2.38
2023-01-19T17:34:10.896Z,2.52
2023-01-19T17:37:13.073Z,2.40
2023-01-19T17:40:16.367Z,2.38
2023-01-19T17:43:17.843Z,2.38
2023-01-19T17:46:22.249Z,2.48
2023-01-19T17:49:25.886Z,2.48
2023-01-19T17:52:29.195Z,2.64
2023-01-19T18:02:13.728Z,2.55
2023-01-19T18:05:16.787Z,2.51
2023-01-19T18:08:19.028Z,2.46
2023-01-19T18:11:21.492Z,2.59
2023-01-19T18:14:23.339Z,2.80
2023-01-19T18:17:25.962Z,2.70
2023-01-19T18:20:27.291Z,2.76
2023-01-19T18:23:30.494Z,2.76
2023-01-19T18:26:34.719Z,2.80
2023-01-19T18:29:36.046Z,2.72
2023-01-19T18:32:38.568Z,2.71
2023-01-19T18:35:39.856Z,2.64
2023-01-19T18:38:43.315Z,2.83
2023-01-19T18:41:44.685Z,2.84
2023-01-19T18:44:46.034Z,2.81
2023-01-19T18:47:47.728Z,2.83
2023-01-19T18:50:51.034Z,2.85
2023-01-19T18:53:54.319Z,2.89
2023-01-19T18:56:56.079Z,2.82
2023-01-19T18:59:58.596Z,2.86
2023-01-19T19:03:00.605Z,2.79
2023-01-19T19:06:03.129Z,2.69
2023-01-19T19:09:05.585Z,2.82
2023-01-19T19:12:08.927Z,2.88
2023-01-19T19:15:11.528Z,2.80
2023-01-19T19:18:12.968Z,2.85
2023-01-19T19:21:15.450Z,2.85
2023-01-19T19:24:17.645Z,2.85
2023-01-19T19:27:19.024Z,2.77
2023-01-19T19:30:21.075Z,2.79
2023-01-19T19:33:23.579Z,2.90
2023-01-19T19:36:26.863Z,2.91
2023-01-19T19:39:29.427Z,2.90
2023-01-19T19:42:30.709Z,2.88
2023-01-19T19:45:34.525Z,2.97
2023-01-19T19:48:39.210Z,2.88
2023-01-19T19:51:41.464Z,3.08
2023-01-19T19:54:44.406Z,3.00
2023-01-19T19:57:48.012Z,2.95
2023-01-19T20:00:49.788Z,2.90
2023-01-19T20:03:52.396Z,2.87
2023-01-19T20:06:53.725Z,2.94
2023-01-19T20:09:55.987Z,3.01
2023-01-19T20:12:57.463Z,3.02
2023-01-19T20:16:01.417Z,3.03
2023-01-19T20:19:03.557Z,3.10
2023-01-19T20:22:04.838Z,3.10
2023-01-19T20:25:07.849Z,3.01
2023-01-19T20:28:10.610Z,3.01
2023-01-19T20:31:15.450Z,3.10
2023-01-19T20:34:20.611Z,3.01
2023-01-19T20:37:24.065Z,3.02
2023-01-19T20:40:26.747Z,3.04
2023-01-19T20:43:29.627Z,3.07
2023-01-19T20:46:31.008Z,2.95
2023-01-19T20:49:32.384Z,2.97
2023-01-19T20:52:34.772Z,3.08
2023-01-19T20:55:39.280Z,3.05
2023-01-19T20:58:42.129Z,2.97
2023-01-19T21:01:45.310Z,2.91
2023-01-19T21:04:48.202Z,2.97
2023-01-19T21:07:49.811Z,3.06
2023-01-19T21:10:56.678Z,3.03
2023-01-19T21:13:58.067Z,3.12
2023-01-19T21:17:01.644Z,2.95
2023-01-19T21:20:05.826Z,3.02
2023-01-19T21:23:07.635Z,3.06
2023-01-19T21:26:12.625Z,3.01
2023-01-19T21:29:15.270Z,3.03
2023-01-19T21:32:17.819Z,3.18
2023-01-19T21:35:20.333Z,3.18
2023-01-19T21:38:22.797Z,3.22
2023-01-19T21:41:26.033Z,3.08
2023-01-19T21:44:27.356Z,3.07
2023-01-19T21:54:19.827Z,2.98
2023-01-19T21:57:23.246Z,2.95
2023-01-19T22:00:26.157Z,3.01
2023-01-19T22:03:28.656Z,3.13
2023-01-19T22:06:31.177Z,3.08
2023-01-19T22:09:34.308Z,3.06
2023-01-19T22:12:39.294Z,3.11
2023-01-19T22:15:42.133Z,3.11
2023-01-19T22:18:45.483Z,3.09
2023-01-19T22:21:48.069Z,3.06
2023-01-19T22:24:49.664Z,3.05
2023-01-19T22:27:52.853Z,3.08
2023-01-19T22:30:54.289Z,3.08
2023-01-19T22:33:57.860Z,3.13
2023-01-19T22:37:00.718Z,3.21
2023-01-19T22:40:02.146Z,3.08
2023-01-19T22:43:05.412Z,3.04
2023-01-19T22:46:08.712Z,3.05
2023-01-19T22:49:15.556Z,3.09
2023-01-19T22:52:17.017Z,3.11
2023-01-19T22:55:20.505Z,3.12
2023-01-19T22:58:23.924Z,3.16
2023-01-19T23:01:27.429Z,3.07
2023-01-19T23:04:30.096Z,3.12
2023-01-19T23:07:32.709Z,3.07
2023-01-19T23:10:38.540Z,2.99
2023-01-19T23:13:40.842Z,3.06
2023-01-19T23:16:43.477Z,2.97
2023-01-19T23:19:45.940Z,2.99
2023-01-19T23:22:48.233Z,3.00
2023-01-19T23:29:14.314Z,3.05
2023-01-19T23:32:16.941Z,3.06
2023-01-19T23:38:41.485Z,3.04
2023-01-19T23:41:43.303Z,3.06
2023-01-19T23:44:46.684Z,3.05
2023-01-19T23:47:48.138Z,3.04
2023-01-19T23:50:50.825Z,3.04
2023-01-19T23:53:52.965Z,2.98
2023-01-19T23:56:56.184Z,2.88
2023-01-19T23:59:58.917Z,3.02
